CheckWX is a tool to help pilots better visualize weather data.  It is not intended as a substitute for an official pre-flight weather briefing.

08:13:07 UTC

KMKL METAR
Mc Kellar-Sipes Regional Airport
Jackson, Tennessee, USA
Current

20 mins ago

KMKL 220753Z AUTO 04003KT 10SM FEW065 BKN085 OVC110 08/06 A3014 RMK AO2 RAE0659 SLP208 P0000 T00780061
Observed
Feb-22 @ 07:53 UTC
Wind
  • 040° at 3 KTS
Visibility
10 SM
Flight Rules
VFR
Cloud Levels
  • Few at 6,500' AGL
  • Broken at 8,500' AGL
  • Overcast at 11,000' AGL
Temperature
C / 46°F
Dewpoint
C / 43°F
Humidity
87%
Altimeter
30.14" Hg
Pressure
1020.8 hPa
Current Rain
0.01"
Previous

1 hour ago

KMKL 220653Z AUTO 11005KT 10SM -RA OVC090 07/06 A3013 RMK AO2 SLP205 P0007 T00720061
Observed
Feb-22 @ 06:53 UTC
Wind
  • 110° at 5 KTS
Visibility
10 SM
Flight Rules
VFR
Conditions
Light Rain
Cloud Levels
  • Overcast at 9,000' AGL
Temperature
C / 45°F
Dewpoint
C / 43°F
Humidity
93%
Altimeter
30.13" Hg
Pressure
1020.5 hPa
Current Rain
0.07"
Previous

2 hours ago

KMKL 220553Z AUTO 13004KT 9SM -RA BKN070 BKN085 OVC110 07/06 A3016 RMK AO2 RAE10B28 SLP213 P0002 60015 T00720056 10078 20072 400941011 56019
Observed
Feb-22 @ 05:53 UTC
Wind
  • 130° at 4 KTS
Visibility
9 SM
Flight Rules
VFR
Conditions
Light Rain
Cloud Levels
  • Broken at 7,000' AGL
  • Broken at 8,500' AGL
  • Overcast at 11,000' AGL
Temperature
C / 45°F
Dewpoint
C / 43°F
Humidity
93%
Altimeter
30.16" Hg
Pressure
1021.3 hPa
Current Rain
0.02"